sensor_id;sensor_type;location;lat;lon;timestamp;pressure;altitude;pressure_sealevel;temperature;humidity
86138;BME280;76796;49.056;15.810;2024-03-25T00:02:25;95452.91;;;5.64;66.61
86138;BME280;76796;49.056;15.810;2024-03-25T00:04:50;95448.63;;;5.63;67.09
86138;BME280;76796;49.056;15.810;2024-03-25T00:07:16;95439.38;;;5.59;67.57
86138;BME280;76796;49.056;15.810;2024-03-25T00:09:42;95441.31;;;5.57;67.28
86138;BME280;76796;49.056;15.810;2024-03-25T00:12:08;95444.75;;;5.57;67.14
86138;BME280;76796;49.056;15.810;2024-03-25T00:14:33;95450.25;;;5.54;67.14
86138;BME280;76796;49.056;15.810;2024-03-25T00:16:59;95450.66;;;5.50;67.69
86138;BME280;76796;49.056;15.810;2024-03-25T00:19:31;95447.19;;;5.49;67.71
86138;BME280;76796;49.056;15.810;2024-03-25T00:21:57;95452.84;;;5.44;67.83
86138;BME280;76796;49.056;15.810;2024-03-25T00:24:22;95443.56;;;5.40;68.30
86138;BME280;76796;49.056;15.810;2024-03-25T00:26:48;95447.16;;;5.39;68.31
86138;BME280;76796;49.056;15.810;2024-03-25T00:29:13;95441.19;;;5.37;68.40
86138;BME280;76796;49.056;15.810;2024-03-25T00:31:39;95442.88;;;5.38;68.29
86138;BME280;76796;49.056;15.810;2024-03-25T00:34:05;95429.84;;;5.37;68.63
86138;BME280;76796;49.056;15.810;2024-03-25T00:36:37;95429.03;;;5.36;68.42
86138;BME280;76796;49.056;15.810;2024-03-25T00:39:03;95429.03;;;5.36;67.92
86138;BME280;76796;49.056;15.810;2024-03-25T00:41:29;95429.84;;;5.37;68.44
86138;BME280;76796;49.056;15.810;2024-03-25T00:44:01;95434.28;;;5.36;68.79
86138;BME280;76796;49.056;15.810;2024-03-25T00:46:27;95425.56;;;5.36;68.29
86138;BME280;76796;49.056;15.810;2024-03-25T00:48:53;95428.19;;;5.36;68.54
86138;BME280;76796;49.056;15.810;2024-03-25T00:51:19;95428.06;;;5.37;68.10
86138;BME280;76796;49.056;15.810;2024-03-25T00:53:51;95427.13;;;5.38;68.07
86138;BME280;76796;49.056;15.810;2024-03-25T00:56:16;95420.09;;;5.39;68.14
86138;BME280;76796;49.056;15.810;2024-03-25T00:58:42;95417.47;;;5.39;68.29
86138;BME280;76796;49.056;15.810;2024-03-25T01:01:07;95420.91;;;5.39;68.18
86138;BME280;76796;49.056;15.810;2024-03-25T01:03:33;95414.84;;;5.39;68.41
86138;BME280;76796;49.056;15.810;2024-03-25T01:05:59;95422.72;;;5.39;68.27
86138;BME280;76796;49.056;15.810;2024-03-25T01:08:25;95421.47;;;5.43;68.21
86138;BME280;76796;49.056;15.810;2024-03-25T01:10:57;95415.53;;;5.41;68.00
86138;BME280;76796;49.056;15.810;2024-03-25T01:13:22;95419.00;;;5.41;68.25
86138;BME280;76796;49.056;15.810;2024-03-25T01:15:48;95415.81;;;5.38;68.25
86138;BME280;76796;49.056;15.810;2024-03-25T01:18:13;95413.28;;;5.36;68.05
86138;BME280;76796;49.056;15.810;2024-03-25T01:20:39;95412.44;;;5.36;67.97
86138;BME280;76796;49.056;15.810;2024-03-25T01:23:04;95413.41;;;5.35;68.02
86138;BME280;76796;49.056;15.810;2024-03-25T01:25:30;95406.50;;;5.34;68.53
86138;BME280;76796;49.056;15.810;2024-03-25T01:28:03;95404.59;;;5.36;67.75
86138;BME280;76796;49.056;15.810;2024-03-25T01:30:29;95399.34;;;5.36;68.14
86138;BME280;76796;49.056;15.810;2024-03-25T01:32:55;95403.63;;;5.37;67.88
86138;BME280;76796;49.056;15.810;2024-03-25T01:35:20;95404.72;;;5.34;67.79
86138;BME280;76796;49.056;15.810;2024-03-25T01:37:46;95394.50;;;5.31;68.15
86138;BME280;76796;49.056;15.810;2024-03-25T01:40:11;95395.44;;;5.30;67.88
86138;BME280;76796;49.056;15.810;2024-03-25T01:42:37;95404.41;;;5.28;68.46
86138;BME280;76796;49.056;15.810;2024-03-25T01:45:10;95396.56;;;5.28;68.05
86138;BME280;76796;49.056;15.810;2024-03-25T01:47:42;95400.41;;;5.24;69.33
86138;BME280;76796;49.056;15.810;2024-03-25T01:50:07;95402.63;;;5.28;68.70
86138;BME280;76796;49.056;15.810;2024-03-25T01:52:33;95400.00;;;5.28;68.63
86138;BME280;76796;49.056;15.810;2024-03-25T01:54:59;95401.78;;;5.28;68.99
86138;BME280;76796;49.056;15.810;2024-03-25T01:57:27;95406.66;;;5.32;68.65
86138;BME280;76796;49.056;15.810;2024-03-25T01:59:53;95409.97;;;5.34;68.56
86138;BME280;76796;49.056;15.810;2024-03-25T02:02:25;95407.81;;;5.39;68.67
86138;BME280;76796;49.056;15.810;2024-03-25T02:04:51;95406.25;;;5.37;68.65
86138;BME280;76796;49.056;15.810;2024-03-25T02:07:17;95411.38;;;5.38;69.13
86138;BME280;76796;49.056;15.810;2024-03-25T02:09:44;95417.47;;;5.39;68.60
86138;BME280;76796;49.056;15.810;2024-03-25T02:12:10;95414.84;;;5.39;69.19
86138;BME280;76796;49.056;15.810;2024-03-25T02:14:36;95417.47;;;5.39;69.13
86138;BME280;76796;49.056;15.810;2024-03-25T02:17:02;95408.34;;;5.43;69.18
86138;BME280;76796;49.056;15.810;2024-03-25T02:19:36;95405.59;;;5.44;68.87
86138;BME280;76796;49.056;15.810;2024-03-25T02:22:02;95410.72;;;5.46;68.66
86138;BME280;76796;49.056;15.810;2024-03-25T02:24:30;95406.28;;;5.47;68.88
86138;BME280;76796;49.056;15.810;2024-03-25T02:26:56;95401.88;;;5.47;68.94
86138;BME280;76796;49.056;15.810;2024-03-25T02:29:22;95407.41;;;5.44;68.98
86138;BME280;76796;49.056;15.810;2024-03-25T02:31:47;95407.25;;;5.46;68.94
86138;BME280;76796;49.056;15.810;2024-03-25T02:34:13;95417.63;;;5.47;68.73
86138;BME280;76796;49.056;15.810;2024-03-25T02:36:45;95415.13;;;5.46;68.98
86138;BME280;76796;49.056;15.810;2024-03-25T02:39:10;95421.06;;;5.48;68.53
86138;BME280;76796;49.056;15.810;2024-03-25T02:41:36;95424.66;;;5.47;68.41
86138;BME280;76796;49.056;15.810;2024-03-25T02:44:08;95428.94;;;5.48;68.65
86138;BME280;76796;49.056;15.810;2024-03-25T02:46:41;95430.59;;;5.49;68.99
86138;BME280;76796;49.056;15.810;2024-03-25T02:49:06;95439.44;;;5.48;68.37
86138;BME280;76796;49.056;15.810;2024-03-25T02:51:32;95433.38;;;5.47;69.03
86138;BME280;76796;49.056;15.810;2024-03-25T02:54:04;95431.00;;;5.44;69.08
86138;BME280;76796;49.056;15.810;2024-03-25T02:56:29;95430.88;;;5.46;68.83
86138;BME280;76796;49.056;15.810;2024-03-25T02:58:55;95430.06;;;5.45;68.90
86138;BME280;76796;49.056;15.810;2024-03-25T03:01:20;95419.13;;;5.40;69.27
86138;BME280;76796;49.056;15.810;2024-03-25T03:03:46;95422.44;;;5.42;68.79
86138;BME280;76796;49.056;15.810;2024-03-25T03:06:11;95417.19;;;5.42;68.88
86138;BME280;76796;49.056;15.810;2024-03-25T03:08:37;95419.97;;;5.40;68.75
86138;BME280;76796;49.056;15.810;2024-03-25T03:11:09;95424.38;;;5.40;68.88
86138;BME280;76796;49.056;15.810;2024-03-25T03:13:34;95438.47;;;5.39;69.00
86138;BME280;76796;49.056;15.810;2024-03-25T03:16:00;95430.69;;;5.37;68.74
86138;BME280;76796;49.056;15.810;2024-03-25T03:18:27;95436.81;;;5.38;68.84
86138;BME280;76796;49.056;15.810;2024-03-25T03:20:53;95433.22;;;5.39;68.48
86138;BME280;76796;49.056;15.810;2024-03-25T03:23:22;95433.22;;;5.39;68.74
86138;BME280;76796;49.056;15.810;2024-03-25T03:25:47;95443.38;;;5.32;69.40
86138;BME280;76796;49.056;15.810;2024-03-25T03:28:19;95437.03;;;5.35;68.72
86138;BME280;76796;49.056;15.810;2024-03-25T03:30:44;95429.84;;;5.37;68.69
86138;BME280;76796;49.056;15.810;2024-03-25T03:33:10;95440.13;;;5.40;68.89
86138;BME280;76796;49.056;15.810;2024-03-25T03:35:36;95438.69;;;5.36;68.42
86138;BME280;76796;49.056;15.810;2024-03-25T03:38:02;95440.63;;;5.34;68.86
86138;BME280;76796;49.056;15.810;2024-03-25T03:40:29;95433.44;;;5.36;68.50
86138;BME280;76796;49.056;15.810;2024-03-25T03:42:55;95433.56;;;5.34;68.41
86138;BME280;76796;49.056;15.810;2024-03-25T03:45:34;95430.00;;;5.35;68.42
86138;BME280;76796;49.056;15.810;2024-03-25T03:48:02;95430.44;;;5.40;68.31
86138;BME280;76796;49.056;15.810;2024-03-25T03:50:28;95442.16;;;5.36;68.44
86138;BME280;76796;49.056;15.810;2024-03-25T03:52:53;95440.63;;;5.34;68.70
86138;BME280;76796;49.056;15.810;2024-03-25T03:55:19;95430.66;;;5.28;68.54
86138;BME280;76796;49.056;15.810;2024-03-25T03:57:44;95440.06;;;5.30;68.26
86138;BME280;76796;49.056;15.810;2024-03-25T04:00:10;95444.47;;;5.30;68.47
86138;BME280;76796;49.056;15.810;2024-03-25T04:02:43;95442.56;;;5.32;68.28
86138;BME280;76796;49.056;15.810;2024-03-25T04:05:08;95455.41;;;5.35;68.56
86138;BME280;76796;49.056;15.810;2024-03-25T04:07:34;95441.19;;;5.37;68.67
86138;BME280;76796;49.056;15.810;2024-03-25T04:10:00;95450.34;;;5.43;68.30
86138;BME280;76796;49.056;15.810;2024-03-25T04:12:28;95457.97;;;5.46;68.07
86138;BME280;76796;49.056;15.810;2024-03-25T04:14:53;95452.56;;;5.48;67.97
86138;BME280;76796;49.056;15.810;2024-03-25T04:17:22;95451.75;;;5.47;68.64
86138;BME280;76796;49.056;15.810;2024-03-25T04:19:54;95459.22;;;5.52;68.34
86138;BME280;76796;49.056;15.810;2024-03-25T04:22:19;95454.22;;;5.49;68.45
86138;BME280;76796;49.056;15.810;2024-03-25T04:24:45;95462.25;;;5.47;68.62
86138;BME280;76796;49.056;15.810;2024-03-25T04:27:11;95453.28;;;5.50;68.49
86138;BME280;76796;49.056;15.810;2024-03-25T04:29:36;95461.28;;;5.48;68.44
86138;BME280;76796;49.056;15.810;2024-03-25T04:32:02;95462.50;;;5.44;69.24
86138;BME280;76796;49.056;15.810;2024-03-25T04:34:28;95467.50;;;5.47;68.96
86138;BME280;76796;49.056;15.810;2024-03-25T04:37:01;95476.31;;;5.46;69.57
86138;BME280;76796;49.056;15.810;2024-03-25T04:39:27;95485.59;;;5.50;69.24
86138;BME280;76796;49.056;15.810;2024-03-25T04:41:52;95478.00;;;5.47;69.42
86138;BME280;76796;49.056;15.810;2024-03-25T04:44:18;95475.09;;;5.50;69.10
86138;BME280;76796;49.056;15.810;2024-03-25T04:46:50;95479.38;;;5.51;69.31
86138;BME280;76796;49.056;15.810;2024-03-25T04:49:15;95482.00;;;5.51;69.48
86138;BME280;76796;49.056;15.810;2024-03-25T04:51:41;95481.88;;;5.53;69.45
86138;BME280;76796;49.056;15.810;2024-03-25T04:54:14;95485.34;;;5.53;69.36
86138;BME280;76796;49.056;15.810;2024-03-25T04:56:39;95477.47;;;5.53;69.16
86138;BME280;76796;49.056;15.810;2024-03-25T04:59:05;95482.97;;;5.50;69.39
86138;BME280;76796;49.056;15.810;2024-03-25T05:01:31;95471.50;;;5.51;68.91
86138;BME280;76796;49.056;15.810;2024-03-25T05:03:56;95479.38;;;5.51;69.53
86138;BME280;76796;49.056;15.810;2024-03-25T05:06:22;95492.50;;;5.51;69.17
86138;BME280;76796;49.056;15.810;2024-03-25T05:08:47;95476.47;;;5.44;69.34
86138;BME280;76796;49.056;15.810;2024-03-25T05:11:19;95482.53;;;5.45;69.55
86138;BME280;76796;49.056;15.810;2024-03-25T05:13:44;95486.81;;;5.46;69.11
86138;BME280;76796;49.056;15.810;2024-03-25T05:16:11;95489.31;;;5.48;68.89
86138;BME280;76796;49.056;15.810;2024-03-25T05:18:36;95486.97;;;5.44;69.19
86138;BME280;76796;49.056;15.810;2024-03-25T05:21:02;95490.16;;;5.48;69.24
86138;BME280;76796;49.056;15.810;2024-03-25T05:23:28;95486.25;;;5.42;69.37
86138;BME280;76796;49.056;15.810;2024-03-25T05:25:53;95489.84;;;5.41;69.12
86138;BME280;76796;49.056;15.810;2024-03-25T05:28:25;95496.44;;;5.36;69.55
86138;BME280;76796;49.056;15.810;2024-03-25T05:30:51;95482.34;;;5.37;68.97
86138;BME280;76796;49.056;15.810;2024-03-25T05:33:16;95485.78;;;5.37;69.30
86138;BME280;76796;49.056;15.810;2024-03-25T05:35:42;95498.56;;;5.42;69.15
86138;BME280;76796;49.056;15.810;2024-03-25T05:38:07;95497.84;;;5.40;69.46
86138;BME280;76796;49.056;15.810;2024-03-25T05:40:34;95502.06;;;5.31;70.04
86138;BME280;76796;49.056;15.810;2024-03-25T05:42:59;95498.91;;;5.37;69.87
86138;BME280;76796;49.056;15.810;2024-03-25T05:45:38;95502.28;;;5.39;69.36
86138;BME280;76796;49.056;15.810;2024-03-25T05:48:04;95512.63;;;5.41;69.34
86138;BME280;76796;49.056;15.810;2024-03-25T05:50:29;95512.38;;;5.44;69.25
86138;BME280;76796;49.056;15.810;2024-03-25T05:52:55;95506.44;;;5.42;69.66
86138;BME280;76796;49.056;15.810;2024-03-25T05:55:20;95513.50;;;5.51;69.00
86138;BME280;76796;49.056;15.810;2024-03-25T05:57:46;95512.31;;;5.55;69.16
86138;BME280;76796;49.056;15.810;2024-03-25T06:00:12;95512.03;;;5.58;69.06
86138;BME280;76796;49.056;15.810;2024-03-25T06:02:45;95519.53;;;5.63;68.96
86138;BME280;76796;49.056;15.810;2024-03-25T06:05:11;95522.84;;;5.65;68.56
86138;BME280;76796;49.056;15.810;2024-03-25T06:07:36;95523.41;;;5.68;68.58
86138;BME280;76796;49.056;15.810;2024-03-25T06:10:02;95531.97;;;5.70;68.44
86138;BME280;76796;49.056;15.810;2024-03-25T06:12:29;95530.31;;;5.69;68.87
86138;BME280;76796;49.056;15.810;2024-03-25T06:14:54;95539.50;;;5.75;68.52
86138;BME280;76796;49.056;15.810;2024-03-25T06:17:20;95539.50;;;5.75;68.39
86138;BME280;76796;49.056;15.810;2024-03-25T06:19:52;95533.41;;;5.74;68.38
86138;BME280;76796;49.056;15.810;2024-03-25T06:22:18;95538.94;;;5.71;68.24
86138;BME280;76796;49.056;15.810;2024-03-25T06:24:43;95538.06;;;5.71;68.05
86138;BME280;76796;49.056;15.810;2024-03-25T06:27:10;95544.47;;;5.78;68.73
86138;BME280;76796;49.056;15.810;2024-03-25T06:29:35;95549.19;;;5.84;68.24
86138;BME280;76796;49.056;15.810;2024-03-25T06:32:01;95548.09;;;5.87;68.43
86138;BME280;76796;49.056;15.810;2024-03-25T06:34:45;95555.63;;;5.91;67.92
86138;BME280;76796;49.056;15.810;2024-03-25T06:37:17;95563.13;;;5.96;68.35
86138;BME280;76796;49.056;15.810;2024-03-25T06:39:43;95571.06;;;6.06;67.82
86138;BME280;76796;49.056;15.810;2024-03-25T06:42:08;95573.78;;;6.04;67.60
86138;BME280;76796;49.056;15.810;2024-03-25T06:44:33;95575.34;;;6.07;67.79
86138;BME280;76796;49.056;15.810;2024-03-25T06:47:08;95576.88;;;6.09;67.69
86138;BME280;76796;49.056;15.810;2024-03-25T06:49:34;95580.34;;;6.19;67.20
86138;BME280;76796;49.056;15.810;2024-03-25T06:51:59;95599.44;;;6.21;67.43
86138;BME280;76796;49.056;15.810;2024-03-25T06:54:31;95586.75;;;6.26;66.75
86138;BME280;76796;49.056;15.810;2024-03-25T06:56:57;95585.66;;;6.29;66.87
86138;BME280;76796;49.056;15.810;2024-03-25T06:59:22;95593.00;;;6.35;66.79
86138;BME280;76796;49.056;15.810;2024-03-25T07:01:48;95591.66;;;6.41;66.83
86138;BME280;76796;49.056;15.810;2024-03-25T07:04:13;95602.56;;;6.36;66.19
86138;BME280;76796;49.056;15.810;2024-03-25T07:06:38;95600.75;;;6.37;66.21
86138;BME280;76796;49.056;15.810;2024-03-25T07:09:04;95601.06;;;6.43;66.17
86138;BME280;76796;49.056;15.810;2024-03-25T07:11:43;95605.50;;;6.43;65.86
86138;BME280;76796;49.056;15.810;2024-03-25T07:14:12;95605.66;;;6.51;65.75
86138;BME280;76796;49.056;15.810;2024-03-25T07:16:37;95605.56;;;6.62;65.99
86138;BME280;76796;49.056;15.810;2024-03-25T07:19:03;95609.88;;;6.73;66.15
86138;BME280;76796;49.056;15.810;2024-03-25T07:21:28;95613.06;;;6.86;65.61
86138;BME280;76796;49.056;15.810;2024-03-25T07:23:55;95608.81;;;6.94;64.77
86138;BME280;76796;49.056;15.810;2024-03-25T07:26:20;95625.28;;;6.97;64.01
86138;BME280;76796;49.056;15.810;2024-03-25T07:28:52;95615.63;;;7.07;64.69
86138;BME280;76796;49.056;15.810;2024-03-25T07:31:18;95619.91;;;7.08;64.10
86138;BME280;76796;49.056;15.810;2024-03-25T07:33:43;95615.50;;;7.08;63.84
86138;BME280;76796;49.056;15.810;2024-03-25T07:36:09;95618.53;;;7.13;63.46
86138;BME280;76796;49.056;15.810;2024-03-25T07:38:34;95614.38;;;7.11;62.71
86138;BME280;76796;49.056;15.810;2024-03-25T07:41:04;95631.56;;;7.15;62.66
86138;BME280;76796;49.056;15.810;2024-03-25T07:43:30;95629.19;;;7.12;62.94
86138;BME280;76796;49.056;15.810;2024-03-25T07:46:02;95637.09;;;7.12;63.47
86138;BME280;76796;49.056;15.810;2024-03-25T07:48:34;95633.50;;;7.13;63.75
86138;BME280;76796;49.056;15.810;2024-03-25T07:51:01;95639.44;;;7.15;63.49
86138;BME280;76796;49.056;15.810;2024-03-25T07:53:26;95649.41;;;7.21;63.90
86138;BME280;76796;49.056;15.810;2024-03-25T07:55:51;95641.81;;;7.18;63.62
86138;BME280;76796;49.056;15.810;2024-03-25T07:58:17;95646.94;;;7.10;63.33
86138;BME280;76796;49.056;15.810;2024-03-25T08:00:43;95661.47;;;7.14;63.15
86138;BME280;76796;49.056;15.810;2024-03-25T08:03:15;95654.56;;;7.13;63.65
86138;BME280;76796;49.056;15.810;2024-03-25T08:05:41;95655.94;;;7.07;63.25
86138;BME280;76796;49.056;15.810;2024-03-25T08:08:07;95649.00;;;7.06;62.99
86138;BME280;76796;49.056;15.810;2024-03-25T08:10:32;95658.28;;;7.10;63.00
86138;BME280;76796;49.056;15.810;2024-03-25T08:12:58;95664.81;;;7.06;62.37
86138;BME280;76796;49.056;15.810;2024-03-25T08:15:23;95666.47;;;7.07;62.72
86138;BME280;76796;49.056;15.810;2024-03-25T08:17:49;95672.28;;;7.11;63.00
86138;BME280;76796;49.056;15.810;2024-03-25T08:20:21;95667.25;;;6.98;62.67
86138;BME280;76796;49.056;15.810;2024-03-25T08:22:48;95670.06;;;7.06;62.95
86138;BME280;76796;49.056;15.810;2024-03-25T08:25:14;95670.34;;;7.13;62.80
86138;BME280;76796;49.056;15.810;2024-03-25T08:27:39;95670.06;;;7.16;62.84
86138;BME280;76796;49.056;15.810;2024-03-25T08:30:05;95674.38;;;7.27;62.79
86138;BME280;76796;49.056;15.810;2024-03-25T08:32:31;95668.16;;;7.28;62.25
86138;BME280;76796;49.056;15.810;2024-03-25T08:34:58;95672.06;;;7.43;61.98
86138;BME280;76796;49.056;15.810;2024-03-25T08:37:30;95671.75;;;7.55;61.74
86138;BME280;76796;49.056;15.810;2024-03-25T08:39:56;95672.31;;;7.69;61.74
86138;BME280;76796;49.056;15.810;2024-03-25T08:42:21;95670.94;;;7.84;62.30
86138;BME280;76796;49.056;15.810;2024-03-25T08:44:53;95683.28;;;7.93;61.29
86138;BME280;76796;49.056;15.810;2024-03-25T08:47:18;95685.63;;;7.96;59.96
86138;BME280;76796;49.056;15.810;2024-03-25T08:49:44;95682.72;;;7.99;60.30
86138;BME280;76796;49.056;15.810;2024-03-25T08:52:09;95674.94;;;7.98;60.51
86138;BME280;76796;49.056;15.810;2024-03-25T08:54:41;95674.81;;;7.99;60.26
86138;BME280;76796;49.056;15.810;2024-03-25T08:57:07;95680.63;;;8.03;59.43
86138;BME280;76796;49.056;15.810;2024-03-25T08:59:32;95685.06;;;8.12;59.62
86138;BME280;76796;49.056;15.810;2024-03-25T09:01:58;95674.91;;;8.27;59.70
86138;BME280;76796;49.056;15.810;2024-03-25T09:04:29;95672.13;;;8.28;58.21
86138;BME280;76796;49.056;15.810;2024-03-25T09:06:55;95691.13;;;8.32;58.15
86138;BME280;76796;49.056;15.810;2024-03-25T09:09:21;95679.59;;;8.33;57.95
86138;BME280;76796;49.056;15.810;2024-03-25T09:12:11;95690.03;;;8.34;57.88
86138;BME280;76796;49.056;15.810;2024-03-25T09:14:37;95688.66;;;8.40;57.94
86138;BME280;76796;49.056;15.810;2024-03-25T09:17:04;95682.41;;;8.41;57.39
86138;BME280;76796;49.056;15.810;2024-03-25T09:19:30;95678.34;;;8.37;56.45
86138;BME280;76796;49.056;15.810;2024-03-25T09:21:55;95680.75;;;8.40;56.46
86138;BME280;76796;49.056;15.810;2024-03-25T09:24:21;95687.41;;;8.34;56.84
86138;BME280;76796;49.056;15.810;2024-03-25T09:26:49;95688.38;;;8.24;56.72
86138;BME280;76796;49.056;15.810;2024-03-25T09:29:21;95702.69;;;8.11;56.26
86138;BME280;76796;49.056;15.810;2024-03-25T09:31:47;95693.06;;;8.20;56.85
86138;BME280;76796;49.056;15.810;2024-03-25T09:34:12;95694.19;;;8.18;57.36
86138;BME280;76796;49.056;15.810;2024-03-25T09:36:38;95699.88;;;8.23;57.50
86138;BME280;76796;49.056;15.810;2024-03-25T09:39:03;95694.22;;;8.08;55.93
86138;BME280;76796;49.056;15.810;2024-03-25T09:41:30;95685.31;;;8.19;56.60
86138;BME280;76796;49.056;15.810;2024-03-25T09:44:00;95698.91;;;8.24;57.35
86138;BME280;76796;49.056;15.810;2024-03-25T09:46:38;95691.28;;;8.21;57.06
86138;BME280;76796;49.056;15.810;2024-03-25T09:49:04;95693.75;;;8.22;57.51
86138;BME280;76796;49.056;15.810;2024-03-25T09:51:31;95696.41;;;8.22;57.03
86138;BME280;76796;49.056;15.810;2024-03-25T09:53:57;95694.19;;;8.18;56.19
86138;BME280;76796;49.056;15.810;2024-03-25T09:56:23;95690.88;;;8.15;55.98
86138;BME280;76796;49.056;15.810;2024-03-25T09:58:48;95695.84;;;8.19;55.90
86138;BME280;76796;49.056;15.810;2024-03-25T10:01:14;95691.28;;;8.21;55.85
86138;BME280;76796;49.056;15.810;2024-03-25T10:03:46;95687.66;;;8.22;55.49
86138;BME280;76796;49.056;15.810;2024-03-25T10:06:12;95696.00;;;8.27;55.70
86138;BME280;76796;49.056;15.810;2024-03-25T10:08:38;95695.47;;;8.23;55.37
86138;BME280;76796;49.056;15.810;2024-03-25T10:11:03;95714.16;;;8.30;55.25
86138;BME280;76796;49.056;15.810;2024-03-25T10:13:29;95711.38;;;8.31;55.43
86138;BME280;76796;49.056;15.810;2024-03-25T10:15:55;95695.31;;;8.34;55.27
86138;BME280;76796;49.056;15.810;2024-03-25T10:18:20;95694.47;;;8.34;54.59
86138;BME280;76796;49.056;15.810;2024-03-25T10:20:53;95701.84;;;8.40;54.78
86138;BME280;76796;49.056;15.810;2024-03-25T10:23:25;95703.22;;;8.44;54.50
86138;BME280;76796;49.056;15.810;2024-03-25T10:25:54;95709.72;;;8.50;54.06
86138;BME280;76796;49.056;15.810;2024-03-25T10:28:20;95700.25;;;8.57;54.15
86138;BME280;76796;49.056;15.810;2024-03-25T10:30:45;95702.84;;;8.66;53.51
86138;BME280;76796;49.056;15.810;2024-03-25T10:33:11;95702.69;;;8.68;51.13
86138;BME280;76796;49.056;15.810;2024-03-25T10:35:38;95702.25;;;8.72;52.51
86138;BME280;76796;49.056;15.810;2024-03-25T10:38:10;95698.22;;;8.78;53.82
86138;BME280;76796;49.056;15.810;2024-03-25T10:40:39;95711.00;;;8.73;52.99
86138;BME280;76796;49.056;15.810;2024-03-25T10:43:06;95713.38;;;8.76;52.73
86138;BME280;76796;49.056;15.810;2024-03-25T10:45:47;95718.81;;;8.74;51.97
86138;BME280;76796;49.056;15.810;2024-03-25T10:48:31;95704.63;;;8.76;51.66
86138;BME280;76796;49.056;15.810;2024-03-25T10:51:01;95695.44;;;8.80;52.90
86138;BME280;76796;49.056;15.810;2024-03-25T10:53:35;95689.34;;;8.79;52.41
86138;BME280;76796;49.056;15.810;2024-03-25T10:56:03;95698.91;;;8.80;51.77
86138;BME280;76796;49.056;15.810;2024-03-25T10:58:31;95703.25;;;8.71;51.92
86138;BME280;76796;49.056;15.810;2024-03-25T11:00:58;95704.22;;;8.70;52.18
86138;BME280;76796;49.056;15.810;2024-03-25T11:03:25;95698.94;;;8.70;52.36
86138;BME280;76796;49.056;15.810;2024-03-25T11:05:51;95702.56;;;8.69;52.28
86138;BME280;76796;49.056;15.810;2024-03-25T11:08:17;95697.47;;;8.58;51.43
86138;BME280;76796;49.056;15.810;2024-03-25T11:10:49;95680.81;;;8.58;51.67
86138;BME280;76796;49.056;15.810;2024-03-25T11:13:18;95689.94;;;8.63;52.39
86138;BME280;76796;49.056;15.810;2024-03-25T11:15:48;95680.47;;;8.70;51.62
86138;BME280;76796;49.056;15.810;2024-03-25T11:18:18;95691.84;;;8.81;52.35
86138;BME280;76796;49.056;15.810;2024-03-25T11:21:03;95670.69;;;8.90;51.50
86138;BME280;76796;49.056;15.810;2024-03-25T11:23:40;95672.59;;;8.98;50.65
86138;BME280;76796;49.056;15.810;2024-03-25T11:26:26;95684.50;;;9.02;50.38
86138;BME280;76796;49.056;15.810;2024-03-25T11:28:56;95681.19;;;9.00;49.70
86138;BME280;76796;49.056;15.810;2024-03-25T11:31:23;95680.66;;;8.96;50.19
86138;BME280;76796;49.056;15.810;2024-03-25T11:33:50;95680.94;;;8.93;49.77
86138;BME280;76796;49.056;15.810;2024-03-25T11:36:16;95679.00;;;8.95;51.15
86138;BME280;76796;49.056;15.810;2024-03-25T11:38:43;95671.06;;;8.95;51.02
86138;BME280;76796;49.056;15.810;2024-03-25T11:41:12;95682.59;;;8.94;50.41
86138;BME280;76796;49.056;15.810;2024-03-25T11:43:44;95683.03;;;8.90;49.29
86138;BME280;76796;49.056;15.810;2024-03-25T11:46:26;95677.06;;;8.88;47.99
86138;BME280;76796;49.056;15.810;2024-03-25T11:48:52;95680.38;;;8.90;48.84
86138;BME280;76796;49.056;15.810;2024-03-25T11:51:21;95678.69;;;8.98;50.37
86138;BME280;76796;49.056;15.810;2024-03-25T11:53:47;95674.78;;;9.02;49.60
86138;BME280;76796;49.056;15.810;2024-03-25T11:56:13;95673.91;;;9.12;50.48
86138;BME280;76796;49.056;15.810;2024-03-25T11:58:39;95677.75;;;9.17;49.54
86138;BME280;76796;49.056;15.810;2024-03-25T12:01:11;95676.38;;;9.13;48.80
86138;BME280;76796;49.056;15.810;2024-03-25T12:03:37;95673.06;;;9.11;49.96
86138;BME280;76796;49.056;15.810;2024-03-25T12:06:03;95676.69;;;9.10;49.88
86138;BME280;76796;49.056;15.810;2024-03-25T12:08:29;95671.97;;;9.04;49.81
86138;BME280;76796;49.056;15.810;2024-03-25T12:10:56;95672.53;;;9.08;50.21
86138;BME280;76796;49.056;15.810;2024-03-25T12:13:40;95674.47;;;9.05;49.91
86138;BME280;76796;49.056;15.810;2024-03-25T12:16:08;95670.03;;;9.06;49.77
86138;BME280;76796;49.056;15.810;2024-03-25T12:18:41;95661.97;;;9.08;48.91
86138;BME280;76796;49.056;15.810;2024-03-25T12:21:07;95671.25;;;9.12;47.98
86138;BME280;76796;49.056;15.810;2024-03-25T12:23:34;95669.69;;;9.19;48.89
86138;BME280;76796;49.056;15.810;2024-03-25T12:26:00;95670.66;;;9.18;47.53
86138;BME280;76796;49.056;15.810;2024-03-25T12:28:27;95665.47;;;9.26;48.85
86138;BME280;76796;49.056;15.810;2024-03-25T12:30:54;95672.16;;;9.20;48.12
86138;BME280;76796;49.056;15.810;2024-03-25T12:33:23;95671.50;;;9.18;47.46
86138;BME280;76796;49.056;15.810;2024-03-25T12:35:55;95675.94;;;9.18;48.63
86138;BME280;76796;49.056;15.810;2024-03-25T12:38:25;95665.81;;;9.13;48.27
86138;BME280;76796;49.056;15.810;2024-03-25T12:40:53;95671.25;;;9.12;48.68
86138;BME280;76796;49.056;15.810;2024-03-25T12:43:18;95670.13;;;9.14;49.07
86138;BME280;76796;49.056;15.810;2024-03-25T12:45:58;95672.38;;;9.09;47.84
86138;BME280;76796;49.056;15.810;2024-03-25T12:48:24;95674.72;;;9.12;48.23
86138;BME280;76796;49.056;15.810;2024-03-25T12:50:50;95666.13;;;9.10;48.10
86138;BME280;76796;49.056;15.810;2024-03-25T12:53:23;95662.50;;;9.11;47.34
86138;BME280;76796;49.056;15.810;2024-03-25T12:55:48;95675.59;;;9.03;45.54
86138;BME280;76796;49.056;15.810;2024-03-25T12:58:14;95678.66;;;9.08;47.26
86138;BME280;76796;49.056;15.810;2024-03-25T13:00:46;95678.34;;;9.11;47.76
86138;BME280;76796;49.056;15.810;2024-03-25T13:03:25;95670.28;;;9.13;48.68